Time;durP1;ratioP1;P1;durP2;ratioP2;P2;SDS_P1;SDS_P2;PMS_P1;PMS_P2;Temp;Humidity;BMP_temperature;BMP_pressure;BME280_temperature;BME280_humidity;BME280_pressure;Samples;Min_cycle;Max_cycle;Signal;HPM_P1;HPM_P2
2023/04/09 00:01:26;;;;;;;13.90;8.60;;;;;;;9.90;89.70;100298.63;105582;1257;67002;-76
2023/04/09 00:03:54;;;;;;;11.40;9.40;;;;;;;9.79;89.72;100301.73;105610;1258;72462;-75
2023/04/09 00:06:23;;;;;;;12.50;7.20;;;;;;;9.70;90.12;100303.86;105732;1257;61292;-70
2023/04/09 00:08:51;;;;;;;15.70;8.90;;;;;;;9.59;90.49;100304.26;105722;1257;60991;-72
2023/04/09 00:11:20;;;;;;;11.70;7.80;;;;;;;9.49;90.75;100302.79;105409;1257;73721;-71
2023/04/09 00:13:51;;;;;;;10.90;8.70;;;;;;;9.40;91.33;100304.20;105729;1257;66615;-71
2023/04/09 00:16:19;;;;;;;10.80;8.70;;;;;;;9.36;91.88;100305.10;105703;1257;74204;-76
2023/04/09 00:18:47;;;;;;;14.00;8.60;;;;;;;9.37;91.96;100305.52;105643;1258;61768;-71
2023/04/09 00:29:33;;;;;;;14.20;9.30;;;;;;;9.31;92.40;100297.77;102725;1291;600074;-75
2023/04/09 00:32:02;;;;;;;12.00;9.20;;;;;;;9.32;92.33;100298.32;105286;1269;61364;-75
2023/04/09 00:34:30;;;;;;;14.10;10.30;;;;;;;9.34;92.36;100298.70;105239;1267;60943;-75
2023/04/09 00:36:59;;;;;;;10.00;8.10;;;;;;;9.31;92.28;100296.00;105082;1267;71757;-75
2023/04/09 00:39:27;;;;;;;10.70;8.20;;;;;;;9.27;92.24;100297.43;105366;1266;68223;-75
2023/04/09 00:41:57;;;;;;;11.20;8.10;;;;;;;9.26;92.43;100301.06;105066;1267;73594;-75
2023/04/09 00:44:25;;;;;;;10.90;7.30;;;;;;;9.26;92.43;100301.86;105092;1266;60768;-74
2023/04/09 00:46:54;;;;;;;10.40;7.40;;;;;;;9.23;92.31;100301.83;105436;1263;61868;-74
2023/04/09 00:49:25;;;;;;;10.60;8.00;;;;;;;9.19;92.45;100299.68;105277;1269;72415;-74
2023/04/09 00:51:53;;;;;;;28.40;9.00;;;;;;;9.13;92.57;100302.27;105435;1264;68627;-73
2023/04/09 00:54:22;;;;;;;8.60;7.80;;;;;;;9.09;92.72;100297.70;105448;1264;73613;-73
2023/04/09 00:56:50;;;;;;;15.90;9.00;;;;;;;9.03;92.79;100297.73;105008;1264;62691;-73
2023/04/09 00:59:18;;;;;;;9.80;7.60;;;;;;;8.96;93.07;100297.05;105333;1264;60165;-73
2023/04/09 01:01:46;;;;;;;9.50;8.20;;;;;;;8.91;93.21;100296.10;105331;1264;73862;-73
2023/04/09 01:04:15;;;;;;;17.00;8.30;;;;;;;8.95;93.66;100300.46;105132;1264;67316;-73
2023/04/09 01:06:52;;;;;;;13.30;8.20;;;;;;;9.02;93.66;100304.09;105299;1264;72316;-76
2023/04/09 01:09:29;;;;;;;13.50;9.10;;;;;;;9.06;93.56;100299.75;105179;1264;60235;-74
2023/04/09 01:12:11;;;;;;;14.10;8.60;;;;;;;9.06;93.25;100302.49;105433;1266;59594;-74
2023/04/09 01:14:49;;;;;;;8.90;8.00;;;;;;;9.06;93.20;100303.83;106196;1256;73728;-74
2023/04/09 01:17:25;;;;;;;13.60;8.70;;;;;;;8.99;92.93;100303.80;106073;1251;69124;-72
2023/04/09 01:20:00;;;;;;;10.80;7.80;;;;;;;8.95;93.23;100302.77;105999;1254;74319;-75
2023/04/09 01:22:55;;;;;;;13.70;8.30;;;;;;;8.90;93.40;100304.33;105961;1254;61850;-74
2023/04/09 01:25:46;;;;;;;16.40;8.80;;;;;;;8.85;93.69;100300.05;105939;1253;59924;-74
2023/04/09 01:28:19;;;;;;;11.30;9.00;;;;;;;8.84;93.96;100300.27;105938;1251;74854;-74
2023/04/09 01:30:49;;;;;;;16.20;8.80;;;;;;;8.85;93.95;100298.27;105995;1256;67106;-73
2023/04/09 01:33:19;;;;;;;11.70;9.90;;;;;;;8.84;93.82;100296.38;105917;1254;72951;-75
2023/04/09 01:35:48;;;;;;;13.20;9.70;;;;;;;8.82;93.75;100297.81;105909;1253;61113;-75
2023/04/09 01:38:17;;;;;;;10.60;7.90;;;;;;;8.78;93.76;100295.82;105955;1253;62009;-72
2023/04/09 01:40:46;;;;;;;11.40;8.40;;;;;;;8.78;94.09;100299.46;106012;1256;72534;-74
2023/04/09 01:43:16;;;;;;;16.50;8.50;;;;;;;8.76;93.96;100301.52;105832;1254;69166;-73
2023/04/09 01:45:46;;;;;;;14.80;8.60;;;;;;;8.72;94.13;100306.09;106030;1251;72891;-73
2023/04/09 01:48:15;;;;;;;12.60;9.40;;;;;;;8.71;94.32;100307.67;106166;1251;61136;-72
2023/04/09 01:50:47;;;;;;;9.80;8.20;;;;;;;8.72;94.38;100310.62;105976;1251;62535;-74
2023/04/09 01:53:16;;;;;;;10.00;7.40;;;;;;;8.67;94.27;100315.01;105898;1257;74101;-73
2023/04/09 01:55:46;;;;;;;13.40;8.70;;;;;;;8.62;94.55;100316.05;106095;1251;69518;-74
2023/04/09 01:58:18;;;;;;;12.80;9.00;;;;;;;8.60;94.88;100318.92;105947;1257;73728;-75
2023/04/09 02:00:47;;;;;;;16.70;9.10;;;;;;;8.57;94.97;100316.31;105703;1254;63626;-73
2023/04/09 02:03:23;;;;;;;11.70;9.20;;;;;;;8.55;95.07;100315.33;105971;1251;61243;-74
2023/04/09 02:06:01;;;;;;;13.70;9.60;;;;;;;8.50;95.32;100317.28;106122;1257;73871;-75
2023/04/09 02:08:30;;;;;;;18.90;12.20;;;;;;;8.41;95.52;100317.70;106104;1251;68513;-76
2023/04/09 02:10:59;;;;;;;13.70;9.10;;;;;;;8.31;95.82;100317.16;105960;1257;72815;-74
2023/04/09 02:13:27;;;;;;;16.30;10.20;;;;;;;8.26;96.17;100313.92;105930;1251;62166;-76
2023/04/09 02:15:58;;;;;;;10.50;8.50;;;;;;;8.23;96.51;100318.20;106031;1254;60874;-76
2023/04/09 02:18:29;;;;;;;10.50;8.90;;;;;;;8.17;96.78;100314.98;106103;1251;74074;-77
2023/04/09 02:20:58;;;;;;;15.40;10.80;;;;;;;8.15;97.06;100320.63;106186;1251;68702;-75
2023/04/09 02:23:28;;;;;;;13.70;9.90;;;;;;;8.10;97.30;100320.40;106154;1251;73365;-75
2023/04/09 02:25:56;;;;;;;9.40;8.50;;;;;;;8.02;97.84;100321.66;106144;1251;59941;-74
2023/04/09 02:28:25;;;;;;;13.40;9.80;;;;;;;7.97;98.43;100316.75;106151;1253;61593;-75
2023/04/09 02:30:53;;;;;;;13.20;9.50;;;;;;;7.91;98.91;100322.04;106184;1251;72275;-75
2023/04/09 02:33:21;;;;;;;12.80;10.10;;;;;;;7.92;99.17;100320.46;105970;1254;69511;-76
2023/04/09 02:35:50;;;;;;;13.90;10.80;;;;;;;8.04;99.39;100322.02;105983;1256;74404;-75
2023/04/09 02:38:20;;;;;;;13.40;9.90;;;;;;;8.16;99.31;100320.39;106089;1252;61122;-73
2023/04/09 02:40:53;;;;;;;20.80;10.80;;;;;;;8.21;98.81;100321.67;106129;1254;61838;-75
2023/04/09 02:43:23;;;;;;;18.80;10.70;;;;;;;8.21;98.51;100322.48;106105;1251;72483;-73
2023/04/09 02:45:51;;;;;;;21.00;11.30;;;;;;;8.22;98.18;100324.92;106122;1251;69808;-74
2023/04/09 02:48:20;;;;;;;14.30;10.50;;;;;;;8.23;98.10;100321.38;106137;1252;72718;-73
2023/04/09 02:50:50;;;;;;;19.00;10.70;;;;;;;8.22;97.90;100319.60;106126;1251;63473;-76
2023/04/09 02:53:20;;;;;;;18.20;10.30;;;;;;;8.19;97.99;100317.94;106274;1251;61798;-75
2023/04/09 02:55:49;;;;;;;13.50;10.40;;;;;;;8.18;97.79;100314.73;106020;1252;74819;-74
2023/04/09 02:58:17;;;;;;;17.20;12.10;;;;;;;8.16;97.67;100312.77;105959;1251;69708;-74
2023/04/09 03:00:48;;;;;;;16.10;11.50;;;;;;;8.18;97.97;100316.05;106092;1257;72296;-73
2023/04/09 03:03:17;;;;;;;15.30;11.40;;;;;;;8.23;97.81;100317.37;106133;1256;61260;-74
2023/04/09 03:05:45;;;;;;;19.30;13.30;;;;;;;8.24;97.59;100318.31;106020;1251;59825;-76
2023/04/09 03:08:13;;;;;;;19.20;10.90;;;;;;;8.24;97.59;100317.35;106140;1256;74294;-75
2023/04/09 03:10:42;;;;;;;12.90;10.70;;;;;;;8.18;97.33;100317.20;106107;1254;69786;-73
2023/04/09 03:13:11;;;;;;;14.10;11.20;;;;;;;8.05;97.56;100315.01;106011;1251;74107;-75
2023/04/09 03:15:40;;;;;;;17.00;11.50;;;;;;;7.96;97.95;100318.04;106175;1251;61687;-74
2023/04/09 03:18:08;;;;;;;16.70;12.30;;;;;;;7.89;98.41;100320.55;106128;1254;61750;-74
2023/04/09 03:20:38;;;;;;;20.00;13.20;;;;;;;7.88;98.77;100320.11;106036;1251;73516;-73
2023/04/09 03:23:10;;;;;;;19.30;12.70;;;;;;;7.95;98.96;100316.02;105946;1257;68718;-73
2023/04/09 03:25:42;;;;;;;15.90;10.90;;;;;;;7.97;99.01;100318.31;105976;1257;73453;-72
2023/04/09 03:28:12;;;;;;;15.60;11.60;;;;;;;7.93;98.86;100322.09;105888;1254;63207;-74
2023/04/09 03:30:47;;;;;;;15.80;10.50;;;;;;;7.94;99.20;100324.65;106155;1253;62037;-73
2023/04/09 03:33:16;;;;;;;13.60;12.00;;;;;;;7.93;98.97;100326.95;106114;1253;74866;-75
2023/04/09 03:35:51;;;;;;;19.50;11.60;;;;;;;7.96;99.25;100325.58;106094;1251;68784;-74
2023/04/09 03:38:25;;;;;;;17.10;10.10;;;;;;;8.04;99.46;100326.91;105986;1251;73964;-73
2023/04/09 03:40:55;;;;;;;13.30;10.30;;;;;;;8.11;99.15;100327.15;105847;1253;61616;-75
2023/04/09 03:43:26;;;;;;;13.90;11.30;;;;;;;8.15;98.83;100328.39;105832;1253;62098;-74
2023/04/09 03:45:54;;;;;;;16.50;11.80;;;;;;;8.10;98.51;100325.23;105934;1254;74115;-75
2023/04/09 03:48:26;;;;;;;17.20;9.70;;;;;;;8.03;98.41;100327.05;106194;1251;69482;-73
2023/04/09 03:50:55;;;;;;;17.00;9.60;;;;;;;7.95;98.58;100325.96;105975;1253;74602;-74
2023/04/09 03:53:34;;;;;;;16.30;11.50;;;;;;;7.89;98.96;100327.65;106001;1257;61136;-76
2023/04/09 03:56:05;;;;;;;14.70;10.00;;;;;;;7.90;99.30;100323.06;106076;1251;61627;-71
2023/04/09 03:58:34;;;;;;;17.00;10.00;;;;;;;7.95;99.44;100325.76;105939;1257;74100;-71
2023/04/09 04:01:02;;;;;;;12.30;9.10;;;;;;;8.01;99.47;100328.14;106181;1256;66675;-71
2023/04/09 04:03:34;;;;;;;13.00;10.80;;;;;;;8.04;99.38;100329.27;106094;1257;73498;-71
2023/04/09 04:06:17;;;;;;;11.60;9.80;;;;;;;8.02;99.16;100328.45;106087;1254;62189;-72
2023/04/09 04:09:11;;;;;;;25.00;11.80;;;;;;;7.99;98.94;100329.14;105993;1255;61255;-75
2023/04/09 04:11:47;;;;;;;13.00;10.40;;;;;;;8.00;99.24;100334.29;105830;1253;73865;-70
2023/04/09 04:14:15;;;;;;;14.00;9.90;;;;;;;8.04;99.20;100333.77;106209;1253;67870;-73
2023/04/09 04:16:46;;;;;;;13.70;10.60;;;;;;;8.04;99.07;100331.58;106134;1254;74318;-74
2023/04/09 04:19:16;;;;;;;15.10;12.40;;;;;;;8.04;99.22;100334.89;106025;1256;60001;-72
2023/04/09 04:21:47;;;;;;;17.50;13.80;;;;;;;8.04;99.35;100333.56;106167;1251;60581;-73
2023/04/09 04:24:15;;;;;;;16.50;14.80;;;;;;;8.01;98.95;100336.09;106104;1255;74048;-70
2023/04/09 04:26:44;;;;;;;14.10;11.90;;;;;;;7.99;99.03;100340.02;106061;1254;68645;-73
2023/04/09 04:29:14;;;;;;;24.20;13.30;;;;;;;7.98;99.09;100343.48;107550;1254;74305;-77
2023/04/09 04:32:06;;;;;;;15.60;12.20;;;;;;;7.97;99.21;100344.35;107178;1254;63895;-74
2023/04/09 04:34:37;;;;;;;20.60;11.80;;;;;;;8.01;99.22;100344.48;107207;1254;61775;-75
2023/04/09 04:37:12;;;;;;;14.50;11.40;;;;;;;8.07;99.53;100346.48;107220;1251;72893;-72
2023/04/09 04:39:47;;;;;;;13.90;12.40;;;;;;;8.12;99.26;100350.27;107269;1254;67360;-75
2023/04/09 04:42:17;;;;;;;16.20;12.80;;;;;;;8.10;99.01;100350.79;107292;1253;74202;-71
2023/04/09 04:44:45;;;;;;;16.10;13.00;;;;;;;8.05;99.12;100348.95;107354;1254;63057;-73
2023/04/09 04:47:28;;;;;;;16.50;12.60;;;;;;;8.02;99.52;100347.29;107454;1257;60543;-76
2023/04/09 04:49:59;;;;;;;13.40;10.60;;;;;;;8.03;99.78;100352.75;107981;1254;74604;-71
2023/04/09 04:52:30;;;;;;;13.80;10.80;;;;;;;8.11;99.96;100353.48;108288;1255;67897;-74
2023/04/09 04:55:01;;;;;;;14.80;13.30;;;;;;;8.17;99.83;100352.54;107755;1251;71649;-79
2023/04/09 04:57:29;;;;;;;17.90;13.30;;;;;;;8.18;99.91;100355.50;106328;1254;60628;-72
2023/04/09 04:59:59;;;;;;;15.00;13.20;;;;;;;8.20;99.77;100356.02;106056;1251;61860;-74
2023/04/09 05:02:29;;;;;;;13.60;11.00;;;;;;;8.26;99.91;100357.59;106027;1258;74468;-74
2023/04/09 05:05:33;;;;;;;14.50;11.30;;;;;;;8.35;99.93;100363.93;105461;1260;68588;-73
2023/04/09 05:08:04;;;;;;;18.20;11.50;;;;;;;8.41;99.50;100366.31;106075;1254;73569;-72
2023/04/09 05:10:35;;;;;;;27.60;12.90;;;;;;;8.47;99.36;100370.98;106240;1251;60451;-74
2023/04/09 05:13:03;;;;;;;22.40;15.00;;;;;;;8.50;99.06;100371.31;106054;1257;60447;-73
2023/04/09 05:15:39;;;;;;;19.10;15.40;;;;;;;8.53;99.04;100370.24;106205;1251;73915;-76
2023/04/09 05:18:08;;;;;;;19.00;14.30;;;;;;;8.56;98.85;100373.57;106183;1251;68634;-74
2023/04/09 05:20:36;;;;;;;31.20;16.30;;;;;;;8.59;98.75;100372.89;106090;1251;72624;-74
2023/04/09 05:23:11;;;;;;;25.00;16.20;;;;;;;8.58;98.84;100373.83;106070;1254;63277;-71
2023/04/09 05:25:43;;;;;;;18.80;16.40;;;;;;;8.60;98.94;100376.45;106192;1251;62070;-73
2023/04/09 05:28:20;;;;;;;16.80;12.90;;;;;;;8.63;99.00;100377.59;105948;1257;75231;-74
2023/04/09 05:30:53;;;;;;;19.30;15.00;;;;;;;8.69;99.41;100378.56;105906;1259;68283;-74
2023/04/09 05:33:21;;;;;;;18.20;15.70;;;;;;;8.72;99.20;100380.60;106165;1254;73722;-75
2023/04/09 05:35:50;;;;;;;15.50;13.30;;;;;;;8.73;99.09;100379.23;106079;1251;63267;-75
2023/04/09 05:38:20;;;;;;;18.10;12.60;;;;;;;8.75;99.22;100377.76;106092;1251;60479;-75
2023/04/09 05:40:54;;;;;;;21.10;12.90;;;;;;;8.81;99.38;100381.70;106010;1251;75005;-73
2023/04/09 05:43:22;;;;;;;20.10;10.50;;;;;;;8.87;99.35;100381.69;106161;1251;69740;-75
2023/04/09 05:45:55;;;;;;;14.70;12.40;;;;;;;8.93;99.00;100382.58;106118;1257;75022;-72
2023/04/09 05:48:23;;;;;;;23.60;18.90;;;;;;;8.99;98.99;100387.50;106093;1257;60970;-74
2023/04/09 05:50:52;;;;;;;19.60;12.00;;;;;;;9.09;98.99;100389.09;106136;1256;60422;-75
2023/04/09 05:53:25;;;;;;;16.90;12.80;;;;;;;9.21;98.67;100385.36;105979;1254;74944;-74
2023/04/09 05:55:53;;;;;;;19.40;12.20;;;;;;;9.35;98.56;100387.81;105906;1254;68524;-74
2023/04/09 05:58:24;;;;;;;11.40;9.60;;;;;;;9.49;98.23;100386.61;105858;1254;72710;-74
2023/04/09 06:00:56;;;;;;;15.50;10.60;;;;;;;9.62;97.58;100387.84;106191;1254;61283;-75
2023/04/09 06:03:27;;;;;;;15.10;9.70;;;;;;;9.73;97.10;100392.38;106059;1254;62307;-75
2023/04/09 06:05:56;;;;;;;11.60;9.00;;;;;;;9.84;97.05;100390.23;106047;1251;73859;-74
2023/04/09 06:08:26;;;;;;;10.70;9.10;;;;;;;9.94;96.28;100393.86;106150;1254;69663;-74
2023/04/09 06:10:55;;;;;;;20.50;9.40;;;;;;;10.03;96.07;100397.45;106138;1256;72439;-76
2023/04/09 06:13:25;;;;;;;13.60;9.80;;;;;;;10.13;95.74;100398.02;106101;1254;61014;-73
2023/04/09 06:15:53;;;;;;;13.20;8.60;;;;;;;10.24;95.55;100399.23;106156;1251;60434;-72
2023/04/09 06:18:23;;;;;;;10.70;9.00;;;;;;;10.36;95.21;100403.52;106157;1251;75599;-70
2023/04/09 06:21:06;;;;;;;13.10;8.30;;;;;;;10.46;94.56;100404.96;106102;1251;68980;-72
2023/04/09 06:23:39;;;;;;;10.10;8.90;;;;;;;10.59;93.78;100401.88;105898;1256;74275;-74
2023/04/09 06:26:10;;;;;;;10.90;8.50;;;;;;;10.68;93.39;100402.53;106066;1256;63247;-74
2023/04/09 06:28:38;;;;;;;12.60;8.80;;;;;;;10.76;92.73;100403.85;105917;1254;60532;-76
2023/04/09 06:31:11;;;;;;;14.30;10.30;;;;;;;10.85;92.51;100406.27;106049;1256;74058;-76
2023/04/09 06:33:39;;;;;;;9.80;8.80;;;;;;;11.00;92.45;100407.95;106085;1251;69361;-75
2023/04/09 06:36:11;;;;;;;12.10;9.00;;;;;;;11.14;91.91;100401.91;105997;1251;74122;-74
2023/04/09 06:38:40;;;;;;;12.90;7.20;;;;;;;11.26;91.10;100408.27;106147;1251;61075;-75
2023/04/09 06:41:11;;;;;;;8.90;7.20;;;;;;;11.35;90.83;100401.27;106184;1251;62242;-76
2023/04/09 06:43:42;;;;;;;8.70;7.80;;;;;;;11.46;89.78;100402.21;105992;1257;74553;-73
2023/04/09 06:46:10;;;;;;;15.00;9.00;;;;;;;11.56;89.30;100402.79;105961;1259;67132;-72
2023/04/09 06:48:38;;;;;;;12.40;7.40;;;;;;;11.66;89.08;100402.58;106097;1253;74231;-73
2023/04/09 06:51:07;;;;;;;15.30;7.80;;;;;;;11.79;88.89;100403.13;105847;1251;63505;-73
2023/04/09 06:53:39;;;;;;;7.90;7.10;;;;;;;11.92;88.29;100404.99;106100;1260;62550;-74
2023/04/09 06:56:09;;;;;;;9.60;8.10;;;;;;;12.04;87.66;100404.42;106040;1251;75756;-71
2023/04/09 06:58:41;;;;;;;9.00;7.20;;;;;;;12.14;86.79;100406.10;105914;1257;69809;-74
2023/04/09 07:01:09;;;;;;;8.30;7.10;;;;;;;12.18;86.42;100404.95;105947;1256;73560;-75
2023/04/09 07:03:42;;;;;;;11.30;7.40;;;;;;;12.21;86.43;100404.94;105942;1259;63196;-73
2023/04/09 07:06:10;;;;;;;11.30;6.70;;;;;;;12.28;86.74;100405.42;106047;1254;60968;-73
2023/04/09 07:08:39;;;;;;;7.30;6.00;;;;;;;12.36;86.28;100408.97;105957;1256;75588;-77
2023/04/09 07:11:11;;;;;;;13.60;6.40;;;;;;;12.41;85.58;100407.17;106063;1251;67975;-76
2023/04/09 07:13:42;;;;;;;7.00;5.80;;;;;;;12.48;85.27;100407.02;106042;1257;74473;-75
2023/04/09 07:16:10;;;;;;;6.90;6.20;;;;;;;12.55;84.80;100407.25;106115;1254;60586;-78
2023/04/09 07:18:39;;;;;;;6.50;5.30;;;;;;;12.63;84.29;100410.40;106083;1251;62026;-76
2023/04/09 07:21:08;;;;;;;9.80;6.90;;;;;;;12.69;83.41;100412.48;105931;1255;74580;-73
2023/04/09 07:23:36;;;;;;;7.60;6.20;;;;;;;12.72;82.97;100408.75;106156;1254;69081;-72
2023/04/09 07:26:05;;;;;;;9.70;7.00;;;;;;;12.72;81.99;100408.42;105947;1251;74393;-74
2023/04/09 07:28:33;;;;;;;13.20;6.70;;;;;;;12.71;81.84;100412.30;105746;1251;63565;-75
2023/04/09 07:31:04;;;;;;;12.60;6.40;;;;;;;12.74;82.02;100410.73;106089;1252;61864;-76
2023/04/09 07:33:52;;;;;;;8.20;5.80;;;;;;;12.82;82.09;100413.39;105937;1257;76444;-77
2023/04/09 07:36:21;;;;;;;7.50;6.80;;;;;;;12.87;81.50;100413.63;106023;1258;67012;-77
2023/04/09 07:38:51;;;;;;;6.90;5.20;;;;;;;12.86;80.93;100411.98;105672;1259;72827;-73
2023/04/09 07:41:21;;;;;;;10.60;6.40;;;;;;;12.88;80.41;100411.16;105659;1258;61029;-74
2023/04/09 07:43:49;;;;;;;10.40;6.70;;;;;;;12.93;80.54;100408.81;105884;1254;60940;-72
2023/04/09 07:46:21;;;;;;;12.00;6.30;;;;;;;13.01;80.14;100411.45;105828;1259;74411;-74
2023/04/09 07:48:49;;;;;;;15.40;6.70;;;;;;;13.10;79.80;100410.59;105825;1259;68486;-72
2023/04/09 07:51:19;;;;;;;10.30;5.30;;;;;;;13.20;79.58;100405.93;105702;1261;73447;-73
2023/04/09 07:53:52;;;;;;;10.20;5.60;;;;;;;13.30;79.17;100401.79;105779;1257;61936;-75
2023/04/09 07:56:21;;;;;;;13.00;5.30;;;;;;;13.41;78.50;100400.81;105824;1257;61129;-73
2023/04/09 07:58:49;;;;;;;7.10;6.20;;;;;;;13.53;76.93;100397.60;105800;1255;73147;-74
2023/04/09 08:01:23;;;;;;;6.50;5.90;;;;;;;13.62;75.43;100394.14;105818;1259;68363;-73
2023/04/09 08:03:52;;;;;;;13.10;7.30;;;;;;;13.68;74.20;100396.48;105814;1256;73347;-75
2023/04/09 08:06:21;;;;;;;10.30;6.40;;;;;;;13.75;73.84;100393.75;105781;1258;60793;-74
2023/04/09 08:08:54;;;;;;;9.30;6.30;;;;;;;13.87;73.45;100396.27;105685;1257;62222;-74
2023/04/09 08:11:24;;;;;;;11.70;6.70;;;;;;;14.00;71.76;100393.91;105833;1254;75343;-77
2023/04/09 08:13:53;;;;;;;7.40;5.60;;;;;;;14.10;70.09;100400.51;105803;1257;71167;-76
2023/04/09 08:16:26;;;;;;;7.40;6.00;;;;;;;14.15;68.66;100399.43;105656;1259;74561;-76
2023/04/09 08:18:56;;;;;;;7.50;5.90;;;;;;;14.21;68.77;100397.27;105820;1254;60562;-77
2023/04/09 08:21:28;;;;;;;10.10;6.10;;;;;;;14.27;68.62;100395.42;105791;1257;61861;-78
2023/04/09 08:24:03;;;;;;;9.50;5.70;;;;;;;14.36;68.26;100393.45;105777;1254;74967;-75
2023/04/09 08:26:32;;;;;;;20.50;6.80;;;;;;;14.44;67.46;100393.21;105839;1258;69711;-77
2023/04/09 08:29:02;;;;;;;7.00;5.90;;;;;;;14.48;66.39;100391.31;105824;1259;73684;-78
2023/04/09 08:31:32;;;;;;;6.20;5.50;;;;;;;14.51;65.86;100395.19;105821;1254;62288;-78
2023/04/09 08:34:01;;;;;;;6.60;5.90;;;;;;;14.54;65.44;100393.89;105897;1257;61175;-77
2023/04/09 08:36:31;;;;;;;10.00;6.80;;;;;;;14.54;65.81;100390.27;105794;1260;73800;-75
2023/04/09 08:38:59;;;;;;;10.90;5.70;;;;;;;14.57;66.00;100393.07;105849;1260;67893;-77
2023/04/09 08:41:28;;;;;;;14.30;6.00;;;;;;;14.59;66.19;100393.45;105671;1259;72173;-73
2023/04/09 08:43:57;;;;;;;5.10;4.20;;;;;;;14.62;65.83;100391.27;105764;1255;61144;-77
2023/04/09 08:46:27;;;;;;;10.10;5.70;;;;;;;14.62;63.98;100387.85;105467;1262;61192;-79
2023/04/09 08:48:55;;;;;;;7.80;5.10;;;;;;;14.64;63.83;100389.20;105624;1257;75498;-75
2023/04/09 08:51:24;;;;;;;9.60;5.10;;;;;;;14.64;63.72;100385.80;105781;1257;67924;-71
2023/04/09 08:54:00;;;;;;;5.50;4.70;;;;;;;14.68;64.43;100387.73;105821;1260;73275;-75
2023/04/09 08:56:31;;;;;;;9.80;5.00;;;;;;;14.78;63.76;100387.80;105727;1257;62118;-73
2023/04/09 08:59:00;;;;;;;10.40;5.40;;;;;;;14.90;63.09;100384.09;105745;1260;61221;-75
2023/04/09 09:01:29;;;;;;;11.40;5.20;;;;;;;14.99;62.80;100385.12;105654;1260;74459;-75
2023/04/09 09:04:02;;;;;;;6.60;4.30;;;;;;;15.09;62.43;100386.38;105897;1259;69992;-74
2023/04/09 09:06:37;;;;;;;11.60;6.40;;;;;;;15.15;62.16;100386.14;105757;1259;74666;-76
2023/04/09 09:09:09;;;;;;;7.40;5.80;;;;;;;15.20;62.40;100383.35;105662;1260;60453;-74
2023/04/09 09:11:45;;;;;;;8.20;5.00;;;;;;;15.24;61.79;100385.23;105776;1259;60383;-71
2023/04/09 09:14:17;;;;;;;6.80;6.10;;;;;;;15.26;61.15;100386.14;105818;1256;75749;-71
2023/04/09 09:17:03;;;;;;;8.40;5.50;;;;;;;15.25;60.67;100388.36;105875;1257;70267;-70
2023/04/09 09:19:34;;;;;;;8.90;6.20;;;;;;;15.25;60.49;100388.79;105999;1258;74198;-71
2023/04/09 09:22:09;;;;;;;7.50;5.70;;;;;;;15.25;60.18;100384.52;106202;1260;60856;-73
2023/04/09 09:24:47;;;;;;;9.70;6.20;;;;;;;15.24;60.43;100385.87;105909;1254;62205;-71
2023/04/09 09:27:32;;;;;;;8.80;6.20;;;;;;;15.28;60.18;100385.89;105794;1254;75568;-72
2023/04/09 09:30:07;;;;;;;10.40;5.90;;;;;;;15.31;58.83;100386.75;105904;1254;67872;-74
2023/04/09 09:32:36;;;;;;;7.70;5.60;;;;;;;15.31;58.68;100385.66;105942;1258;74490;-76
2023/04/09 09:35:05;;;;;;;8.40;4.90;;;;;;;15.32;58.95;100382.59;105805;1259;60456;-75
2023/04/09 09:37:33;;;;;;;7.00;5.30;;;;;;;15.38;59.59;100375.24;105775;1259;60421;-73
2023/04/09 09:40:03;;;;;;;10.10;7.40;;;;;;;15.50;59.60;100367.02;105843;1255;74175;-72
2023/04/09 09:42:36;;;;;;;16.50;7.80;;;;;;;15.62;58.41;100368.42;105758;1255;69142;-74
2023/04/09 09:45:16;;;;;;;10.40;5.70;;;;;;;15.71;58.10;100371.23;105710;1262;72933;-71
2023/04/09 09:47:47;;;;;;;7.60;6.80;;;;;;;15.79;58.74;100370.65;105716;1260;62105;-75
2023/04/09 09:50:16;;;;;;;10.40;6.40;;;;;;;15.86;58.75;100363.83;105804;1254;61806;-75
2023/04/09 09:52:44;;;;;;;10.30;6.60;;;;;;;15.84;57.56;100367.63;105798;1259;73856;-74
2023/04/09 09:55:14;;;;;;;13.70;6.40;;;;;;;15.84;58.92;100364.15;105809;1260;67703;-75
2023/04/09 09:57:47;;;;;;;11.10;5.50;;;;;;;15.91;58.97;100360.15;105759;1259;74478;-72
2023/04/09 10:00:15;;;;;;;8.30;5.80;;;;;;;15.97;59.12;100362.66;105633;1254;62238;-70
2023/04/09 10:02:57;;;;;;;8.70;6.80;;;;;;;16.04;58.29;100365.55;105802;1259;61138;-77
2023/04/09 10:05:26;;;;;;;8.30;5.20;;;;;;;16.10;57.66;100361.55;105906;1254;74465;-74
2023/04/09 10:07:57;;;;;;;13.10;7.70;;;;;;;16.13;57.60;100358.66;105853;1258;67970;-80
2023/04/09 10:10:26;;;;;;;12.70;5.70;;;;;;;16.15;56.96;100356.55;105757;1254;72325;-74
2023/04/09 10:12:55;;;;;;;6.20;5.00;;;;;;;16.21;57.03;100353.73;105754;1259;60593;-74
2023/04/09 10:15:24;;;;;;;6.00;5.40;;;;;;;16.27;57.17;100353.47;105885;1257;62125;-79
2023/04/09 10:17:54;;;;;;;14.30;5.70;;;;;;;16.33;57.95;100352.21;105788;1261;75792;-78
2023/04/09 10:20:33;;;;;;;8.90;5.90;;;;;;;16.44;58.12;100353.47;105756;1260;69516;-78
2023/04/09 10:23:05;;;;;;;14.40;7.80;;;;;;;16.47;57.72;100349.48;105913;1260;73637;-78
2023/04/09 10:25:34;;;;;;;9.10;6.60;;;;;;;16.44;57.17;100348.96;105920;1259;62070;-76
2023/04/09 10:28:11;;;;;;;12.00;6.20;;;;;;;16.44;57.55;100349.56;105707;1264;60476;-75
2023/04/09 10:30:39;;;;;;;14.40;6.80;;;;;;;16.45;57.82;100346.30;105670;1260;75654;-77
2023/04/09 10:33:26;;;;;;;11.40;6.50;;;;;;;16.39;58.13;100344.45;105858;1260;68640;-77
2023/04/09 10:36:00;;;;;;;11.80;5.80;;;;;;;16.33;58.14;100345.64;105774;1259;72701;-72
2023/04/09 10:38:39;;;;;;;9.60;5.60;;;;;;;16.30;58.84;100337.51;105892;1260;62752;-76
2023/04/09 10:41:21;;;;;;;6.50;5.90;;;;;;;16.29;59.29;100333.65;105858;1256;62112;-83
2023/04/09 10:43:49;;;;;;;4.90;4.50;;;;;;;16.28;59.94;100330.55;105724;1254;75523;-78
2023/04/09 10:46:33;;;;;;;6.60;5.90;;;;;;;16.34;59.96;100329.25;105879;1258;69627;-81
2023/04/09 10:49:12;;;;;;;9.20;6.00;;;;;;;16.44;59.94;100331.85;105549;1255;73231;-75
2023/04/09 10:51:46;;;;;;;5.50;4.90;;;;;;;16.50;58.86;100331.73;105866;1256;60463;-76
2023/04/09 10:54:33;;;;;;;11.30;5.20;;;;;;;16.60;57.50;100327.46;105923;1260;60543;-78
2023/04/09 10:57:06;;;;;;;6.00;5.40;;;;;;;16.71;57.67;100325.16;105833;1259;75286;-74
2023/04/09 10:59:48;;;;;;;6.50;5.80;;;;;;;16.75;57.92;100322.93;105821;1260;67549;-75
2023/04/09 11:03:03;;;;;;;11.90;6.10;;;;;;;16.72;57.20;100318.70;105758;1260;74617;-78
2023/04/09 11:06:07;;;;;;;7.30;6.40;;;;;;;16.61;58.65;100323.11;105315;1266;61113;-76
2023/04/09 11:08:38;;;;;;;10.10;6.10;;;;;;;16.51;58.89;100318.81;105757;1257;61052;-77
2023/04/09 11:11:06;;;;;;;8.30;6.30;;;;;;;16.47;59.18;100310.92;105785;1257;73779;-78
2023/04/09 11:13:40;;;;;;;18.80;6.40;;;;;;;16.45;59.07;100305.18;105722;1257;69164;-77
2023/04/09 11:16:14;;;;;;;7.80;5.50;;;;;;;16.44;59.06;100306.88;105570;1259;74556;-77
2023/04/09 11:19:12;;;;;;;10.00;6.60;;;;;;;16.43;56.49;100304.43;105635;1260;60555;-77
2023/04/09 11:21:48;;;;;;;9.70;5.30;;;;;;;16.53;55.08;100297.13;105526;1263;61878;-76
2023/04/09 11:24:17;;;;;;;8.70;5.40;;;;;;;16.67;54.57;100292.79;105581;1264;74669;-76
2023/04/09 11:26:50;;;;;;;10.90;6.00;;;;;;;16.79;53.71;100300.53;105407;1261;67879;-77
2023/04/09 11:29:33;;;;;;;6.20;5.10;;;;;;;16.87;53.45;100290.23;105431;1257;74358;-76
2023/04/09 11:32:04;;;;;;;7.40;4.80;;;;;;;16.96;53.27;100296.08;105600;1256;60863;-75
2023/04/09 11:34:52;;;;;;;8.70;5.20;;;;;;;17.05;53.21;100290.45;105663;1257;61634;-73
2023/04/09 11:37:27;;;;;;;12.40;5.80;;;;;;;17.16;53.61;100282.04;105574;1263;75892;-75
2023/04/09 11:39:57;;;;;;;6.40;5.00;;;;;;;17.26;53.13;100280.89;105795;1258;67848;-75
2023/04/09 11:42:30;;;;;;;9.40;5.20;;;;;;;17.37;51.07;100282.85;105554;1255;74521;-75
2023/04/09 11:45:06;;;;;;;7.30;5.90;;;;;;;17.40;50.67;100276.80;105829;1260;60846;-79